sensor_id;sensor_type;location;lat;lon;timestamp;pressure;altitude;pressure_sealevel;temperature;humidity
47883;BME280;37739;50.350;7.578;2023-02-02T00:01:09;100248.94;;;6.31;84.18
47883;BME280;37739;50.350;7.578;2023-02-02T00:03:34;100248.94;;;6.31;84.52
47883;BME280;37739;50.350;7.578;2023-02-02T00:06:01;100262.53;;;6.31;85.04
47883;BME280;37739;50.350;7.578;2023-02-02T00:08:28;100253.31;;;6.33;84.93
47883;BME280;37739;50.350;7.578;2023-02-02T00:10:54;100244.91;;;6.34;84.38
47883;BME280;37739;50.350;7.578;2023-02-02T00:13:19;100257.75;;;6.36;84.79
47883;BME280;37739;50.350;7.578;2023-02-02T00:15:45;100249.50;;;6.40;84.43
47883;BME280;37739;50.350;7.578;2023-02-02T00:18:10;100251.94;;;6.38;84.88
47883;BME280;37739;50.350;7.578;2023-02-02T00:20:38;100246.94;;;6.40;84.73
47883;BME280;37739;50.350;7.578;2023-02-02T00:23:03;100262.34;;;6.41;84.75
47883;BME280;37739;50.350;7.578;2023-02-02T00:25:33;100258.88;;;6.41;84.84
47883;BME280;37739;50.350;7.578;2023-02-02T00:28:01;100259.78;;;6.41;85.23
47883;BME280;37739;50.350;7.578;2023-02-02T00:30:29;100260.75;;;6.43;84.65
47883;BME280;37739;50.350;7.578;2023-02-02T00:32:58;100273.50;;;6.43;85.35
47883;BME280;37739;50.350;7.578;2023-02-02T00:35:24;100266.81;;;6.45;85.21
47883;BME280;37739;50.350;7.578;2023-02-02T00:37:51;100270.16;;;6.44;85.92
47883;BME280;37739;50.350;7.578;2023-02-02T00:40:22;100263.41;;;6.45;86.18
47883;BME280;37739;50.350;7.578;2023-02-02T00:42:52;100266.72;;;6.44;85.94
47883;BME280;37739;50.350;7.578;2023-02-02T00:45:17;100270.97;;;6.43;86.43
47883;BME280;37739;50.350;7.578;2023-02-02T00:47:44;100269.19;;;6.42;87.09
47883;BME280;37739;50.350;7.578;2023-02-02T00:50:13;100269.00;;;6.39;87.67
47883;BME280;37739;50.350;7.578;2023-02-02T00:52:41;100270.59;;;6.37;88.24
47883;BME280;37739;50.350;7.578;2023-02-02T00:55:10;100266.16;;;6.35;88.51
47883;BME280;37739;50.350;7.578;2023-02-02T00:57:35;100265.38;;;6.36;88.69
47883;BME280;37739;50.350;7.578;2023-02-02T01:00:01;100263.50;;;6.33;89.13
47883;BME280;37739;50.350;7.578;2023-02-02T01:02:27;100273.72;;;6.33;89.16
47883;BME280;37739;50.350;7.578;2023-02-02T01:04:55;100267.84;;;6.34;89.16
47883;BME280;37739;50.350;7.578;2023-02-02T01:07:27;100271.34;;;6.36;89.08
47883;BME280;37739;50.350;7.578;2023-02-02T01:09:53;100276.44;;;6.36;88.69
47883;BME280;37739;50.350;7.578;2023-02-02T01:12:21;100267.84;;;6.34;88.50
47883;BME280;37739;50.350;7.578;2023-02-02T01:14:48;100262.84;;;6.36;88.64
47883;BME280;37739;50.350;7.578;2023-02-02T01:17:14;100261.97;;;6.35;88.89
47883;BME280;37739;50.350;7.578;2023-02-02T01:19:39;100262.75;;;6.34;88.44
47883;BME280;37739;50.350;7.578;2023-02-02T01:22:06;100262.03;;;6.37;88.08
47883;BME280;37739;50.350;7.578;2023-02-02T01:24:33;100266.06;;;6.33;88.64
47883;BME280;37739;50.350;7.578;2023-02-02T01:27:01;100261.97;;;6.35;88.85
47883;BME280;37739;50.350;7.578;2023-02-02T01:29:26;100263.44;;;6.32;88.83
47883;BME280;37739;50.350;7.578;2023-02-02T01:31:51;100256.66;;;6.32;88.19
47883;BME280;37739;50.350;7.578;2023-02-02T01:34:17;100246.47;;;6.32;88.69
47883;BME280;37739;50.350;7.578;2023-02-02T01:36:43;100249.91;;;6.33;88.99
47883;BME280;37739;50.350;7.578;2023-02-02T01:39:08;100249.91;;;6.33;88.58
47883;BME280;37739;50.350;7.578;2023-02-02T01:41:33;100255.88;;;6.33;88.61
47883;BME280;37739;50.350;7.578;2023-02-02T01:44:03;100258.53;;;6.35;88.87
47883;BME280;37739;50.350;7.578;2023-02-02T01:46:36;100256.78;;;6.34;88.35
47883;BME280;37739;50.350;7.578;2023-02-02T01:51:56;100256.06;;;6.36;88.41
47883;BME280;37739;50.350;7.578;2023-02-02T01:54:38;100265.38;;;6.36;88.56
47883;BME280;37739;50.350;7.578;2023-02-02T01:57:22;100259.59;;;6.38;88.33
47883;BME280;37739;50.350;7.578;2023-02-02T01:59:51;100261.16;;;6.36;88.95
47883;BME280;37739;50.350;7.578;2023-02-02T02:02:21;100262.94;;;6.37;88.48
47883;BME280;37739;50.350;7.578;2023-02-02T02:04:48;100263.72;;;6.36;88.36
47883;BME280;37739;50.350;7.578;2023-02-02T02:07:16;100261.25;;;6.38;88.37
47883;BME280;37739;50.350;7.578;2023-02-02T02:09:44;100261.44;;;6.41;88.48
47883;BME280;37739;50.350;7.578;2023-02-02T02:12:12;100251.06;;;6.38;88.73
47883;BME280;37739;50.350;7.578;2023-02-02T02:14:40;100265.28;;;6.34;89.40
47883;BME280;37739;50.350;7.578;2023-02-02T02:39:43;100286.06;;;6.27;92.66
47883;BME280;37739;50.350;7.578;2023-02-02T02:42:15;100279.84;;;6.22;92.04
47883;BME280;37739;50.350;7.578;2023-02-02T02:44:42;100284.44;;;6.27;91.65
47883;BME280;37739;50.350;7.578;2023-02-02T02:47:10;100271.69;;;6.27;91.96
47883;BME280;37739;50.350;7.578;2023-02-02T02:49:46;100282.56;;;6.25;92.37
47883;BME280;37739;50.350;7.578;2023-02-02T02:52:11;100280.09;;;6.26;92.32
47883;BME280;37739;50.350;7.578;2023-02-02T02:54:43;100280.22;;;6.28;92.04
47883;BME280;37739;50.350;7.578;2023-02-02T02:57:33;100282.28;;;6.20;92.87
47883;BME280;37739;50.350;7.578;2023-02-02T03:10:50;100282.75;;;6.28;92.38
47883;BME280;37739;50.350;7.578;2023-02-02T03:13:16;100283.63;;;6.28;92.30
47883;BME280;37739;50.350;7.578;2023-02-02T03:15:44;100288.63;;;6.27;92.07
47883;BME280;37739;50.350;7.578;2023-02-02T03:18:13;100276.69;;;6.26;92.04
47883;BME280;37739;50.350;7.578;2023-02-02T03:20:44;100271.59;;;6.26;92.17
47883;BME280;37739;50.350;7.578;2023-02-02T03:23:09;100278.31;;;6.25;91.79
47883;BME280;37739;50.350;7.578;2023-02-02T03:25:35;100266.50;;;6.26;91.93
47883;BME280;37739;50.350;7.578;2023-02-02T03:28:03;100263.16;;;6.27;92.21
47883;BME280;37739;50.350;7.578;2023-02-02T03:30:29;100259.81;;;6.28;92.30
47883;BME280;37739;50.350;7.578;2023-02-02T03:33:02;100264.06;;;6.27;92.12
47883;BME280;37739;50.350;7.578;2023-02-02T03:35:29;100266.59;;;6.27;92.27
47883;BME280;37739;50.350;7.578;2023-02-02T03:37:58;100262.28;;;6.26;92.30
47883;BME280;37739;50.350;7.578;2023-02-02T03:40:23;100267.47;;;6.28;91.86
47883;BME280;37739;50.350;7.578;2023-02-02T03:42:51;100261.31;;;6.24;92.61
47883;BME280;37739;50.350;7.578;2023-02-02T03:45:19;100270.69;;;6.25;92.95
47883;BME280;37739;50.350;7.578;2023-02-02T03:47:45;100268.75;;;6.21;92.43
47883;BME280;37739;50.350;7.578;2023-02-02T03:50:12;100275.72;;;6.24;92.55
47883;BME280;37739;50.350;7.578;2023-02-02T03:52:40;100278.25;;;6.24;92.90
47883;BME280;37739;50.350;7.578;2023-02-02T03:55:06;100280.00;;;6.25;92.79
47883;BME280;37739;50.350;7.578;2023-02-02T03:57:31;100276.59;;;6.24;92.71
47883;BME280;37739;50.350;7.578;2023-02-02T03:59:56;100277.56;;;6.26;93.08
47883;BME280;37739;50.350;7.578;2023-02-02T04:02:22;100281.88;;;6.27;92.78
47883;BME280;37739;50.350;7.578;2023-02-02T04:04:47;100274.13;;;6.26;92.57
47883;BME280;37739;50.350;7.578;2023-02-02T04:07:12;100278.16;;;6.22;93.22
47883;BME280;37739;50.350;7.578;2023-02-02T04:09:40;100287.66;;;6.25;93.28
47883;BME280;37739;50.350;7.578;2023-02-02T04:12:06;100281.59;;;6.23;92.71
47883;BME280;37739;50.350;7.578;2023-02-02T04:14:33;100282.28;;;6.20;93.16
47883;BME280;37739;50.350;7.578;2023-02-02T04:16:59;100293.44;;;6.22;93.33
47883;BME280;37739;50.350;7.578;2023-02-02T04:19:26;100297.66;;;6.22;93.35
47883;BME280;37739;50.350;7.578;2023-02-02T04:21:56;100299.41;;;6.23;92.56
47883;BME280;37739;50.350;7.578;2023-02-02T04:24:21;100291.78;;;6.23;93.09
47883;BME280;37739;50.350;7.578;2023-02-02T04:26:46;100294.41;;;6.24;92.80
47883;BME280;37739;50.350;7.578;2023-02-02T04:29:12;100293.44;;;6.22;93.08
47883;BME280;37739;50.350;7.578;2023-02-02T04:31:37;100296.97;;;6.24;93.12
47883;BME280;37739;50.350;7.578;2023-02-02T04:34:05;100301.09;;;6.22;93.26
47883;BME280;37739;50.350;7.578;2023-02-02T04:36:30;100299.63;;;6.26;93.08
47883;BME280;37739;50.350;7.578;2023-02-02T04:38:57;100305.59;;;6.26;92.81
47883;BME280;37739;50.350;7.578;2023-02-02T04:41:23;100305.69;;;6.28;92.71
47883;BME280;37739;50.350;7.578;2023-02-02T04:43:48;100307.16;;;6.24;93.05
47883;BME280;37739;50.350;7.578;2023-02-02T04:46:14;100312.16;;;6.23;93.18
47883;BME280;37739;50.350;7.578;2023-02-02T04:48:40;100307.25;;;6.26;92.75
47883;BME280;37739;50.350;7.578;2023-02-02T04:51:09;100311.56;;;6.27;93.11
47883;BME280;37739;50.350;7.578;2023-02-02T04:53:37;100318.44;;;6.28;92.81
47883;BME280;37739;50.350;7.578;2023-02-02T04:58:34;100314.09;;;6.27;92.88
47883;BME280;37739;50.350;7.578;2023-02-02T05:01:07;100321.06;;;6.29;92.95
47883;BME280;37739;50.350;7.578;2023-02-02T05:03:32;100320.88;;;6.26;93.09
47883;BME280;37739;50.350;7.578;2023-02-02T05:06:01;100321.66;;;6.25;92.57
47883;BME280;37739;50.350;7.578;2023-02-02T05:08:27;100323.53;;;6.28;92.48
47883;BME280;37739;50.350;7.578;2023-02-02T05:10:52;100328.41;;;6.25;92.66
47883;BME280;37739;50.350;7.578;2023-02-02T05:13:18;100330.19;;;6.26;93.11
47883;BME280;37739;50.350;7.578;2023-02-02T05:15:45;100338.00;;;6.29;92.59
47883;BME280;37739;50.350;7.578;2023-02-02T05:18:11;100349.78;;;6.27;92.90
47883;BME280;37739;50.350;7.578;2023-02-02T05:20:37;100348.13;;;6.27;93.19
47883;BME280;37739;50.350;7.578;2023-02-02T05:23:04;100342.94;;;6.26;92.84
47883;BME280;37739;50.350;7.578;2023-02-02T05:25:30;100351.56;;;6.28;93.11
47883;BME280;37739;50.350;7.578;2023-02-02T05:27:59;100346.47;;;6.28;93.43
47883;BME280;37739;50.350;7.578;2023-02-02T05:30:24;100349.00;;;6.28;93.56
47883;BME280;37739;50.350;7.578;2023-02-02T05:32:52;100349.00;;;6.28;93.51
47883;BME280;37739;50.350;7.578;2023-02-02T05:35:17;100342.22;;;6.28;92.95
47883;BME280;37739;50.350;7.578;2023-02-02T05:37:45;100341.38;;;6.28;93.41
47883;BME280;37739;50.350;7.578;2023-02-02T05:40:13;100339.78;;;6.30;93.08
47883;BME280;37739;50.350;7.578;2023-02-02T05:42:38;100332.16;;;6.30;92.75
47883;BME280;37739;50.350;7.578;2023-02-02T05:45:03;100335.66;;;6.32;92.25
47883;BME280;37739;50.350;7.578;2023-02-02T05:47:29;100338.81;;;6.28;92.20
47883;BME280;37739;50.350;7.578;2023-02-02T05:49:54;100339.69;;;6.28;92.22
47883;BME280;37739;50.350;7.578;2023-02-02T05:52:32;100343.22;;;6.31;91.81
47883;BME280;37739;50.350;7.578;2023-02-02T05:55:01;100341.53;;;6.31;91.67
47883;BME280;37739;50.350;7.578;2023-02-02T05:57:26;100347.59;;;6.33;91.11
47883;BME280;37739;50.350;7.578;2023-02-02T05:59:54;100347.72;;;6.35;91.06
47883;BME280;37739;50.350;7.578;2023-02-02T06:02:21;100350.16;;;6.33;91.11
47883;BME280;37739;50.350;7.578;2023-02-02T06:04:49;100353.59;;;6.34;91.09
47883;BME280;37739;50.350;7.578;2023-02-02T06:07:17;100352.91;;;6.36;90.74
47883;BME280;37739;50.350;7.578;2023-02-02T06:09:44;100357.13;;;6.36;90.58
47883;BME280;37739;50.350;7.578;2023-02-02T06:12:10;100354.75;;;6.39;90.32
47883;BME280;37739;50.350;7.578;2023-02-02T06:14:37;100352.91;;;6.36;89.94
47883;BME280;37739;50.350;7.578;2023-02-02T06:17:05;100349.47;;;6.36;90.44
47883;BME280;37739;50.350;7.578;2023-02-02T06:19:31;100347.03;;;6.37;89.83
47883;BME280;37739;50.350;7.578;2023-02-02T06:21:56;100348.78;;;6.38;90.21
47883;BME280;37739;50.350;7.578;2023-02-02T06:24:25;100349.75;;;6.40;89.53
47883;BME280;37739;50.350;7.578;2023-02-02T06:26:52;100353.78;;;6.37;89.53
47883;BME280;37739;50.350;7.578;2023-02-02T06:29:18;100355.47;;;6.36;90.14
47883;BME280;37739;50.350;7.578;2023-02-02T06:31:43;100349.59;;;6.37;90.21
47883;BME280;37739;50.350;7.578;2023-02-02T06:34:10;100352.03;;;6.36;89.93
47883;BME280;37739;50.350;7.578;2023-02-02T06:36:38;100355.56;;;6.38;90.07
47883;BME280;37739;50.350;7.578;2023-02-02T06:39:04;100356.44;;;6.38;90.21
47883;BME280;37739;50.350;7.578;2023-02-02T06:41:35;100358.72;;;6.34;90.61
47883;BME280;37739;50.350;7.578;2023-02-02T06:44:06;100356.94;;;6.33;90.97
47883;BME280;37739;50.350;7.578;2023-02-02T06:46:34;100354.00;;;6.26;91.20
47883;BME280;37739;50.350;7.578;2023-02-02T06:48:59;100358.50;;;6.31;90.83
47883;BME280;37739;50.350;7.578;2023-02-02T06:51:27;100362.91;;;6.33;90.65
47883;BME280;37739;50.350;7.578;2023-02-02T06:53:52;100371.56;;;6.35;90.55
47883;BME280;37739;50.350;7.578;2023-02-02T06:56:17;100366.44;;;6.35;90.42
47883;BME280;37739;50.350;7.578;2023-02-02T06:58:45;100371.56;;;6.35;90.29
47883;BME280;37739;50.350;7.578;2023-02-02T07:01:12;100366.63;;;6.38;90.07
47883;BME280;37739;50.350;7.578;2023-02-02T07:03:38;100369.00;;;6.35;89.93
47883;BME280;37739;50.350;7.578;2023-02-02T07:06:21;100376.66;;;6.35;90.20
47883;BME280;37739;50.350;7.578;2023-02-02T07:08:48;100390.06;;;6.33;90.56
47883;BME280;37739;50.350;7.578;2023-02-02T07:11:17;100391.03;;;6.35;90.52
47883;BME280;37739;50.350;7.578;2023-02-02T07:13:44;100385.94;;;6.35;90.39
47883;BME280;37739;50.350;7.578;2023-02-02T07:16:09;100379.75;;;6.31;90.71
47883;BME280;37739;50.350;7.578;2023-02-02T07:18:39;100382.41;;;6.33;90.43
47883;BME280;37739;50.350;7.578;2023-02-02T07:21:09;100383.28;;;6.33;90.18
47883;BME280;37739;50.350;7.578;2023-02-02T07:23:41;100395.34;;;6.36;90.35
47883;BME280;37739;50.350;7.578;2023-02-02T07:26:08;100394.47;;;6.35;90.73
47883;BME280;37739;50.350;7.578;2023-02-02T07:28:34;100387.59;;;6.34;90.59
47883;BME280;37739;50.350;7.578;2023-02-02T07:31:31;100393.56;;;6.35;90.67
47883;BME280;37739;50.350;7.578;2023-02-02T07:33:57;100388.47;;;6.35;90.73
47883;BME280;37739;50.350;7.578;2023-02-02T07:36:23;100394.47;;;6.35;90.71
47883;BME280;37739;50.350;7.578;2023-02-02T07:38:52;100402.19;;;6.37;90.80
47883;BME280;37739;50.350;7.578;2023-02-02T07:41:18;100398.97;;;6.39;90.58
47883;BME280;37739;50.350;7.578;2023-02-02T07:43:47;100404.75;;;6.37;90.81
47883;BME280;37739;50.350;7.578;2023-02-02T07:46:16;100398.97;;;6.39;90.37
47883;BME280;37739;50.350;7.578;2023-02-02T07:48:42;100401.53;;;6.39;90.57
47883;BME280;37739;50.350;7.578;2023-02-02T07:51:14;100403.28;;;6.40;90.31
47883;BME280;37739;50.350;7.578;2023-02-02T07:53:47;100396.72;;;6.44;89.92
47883;BME280;37739;50.350;7.578;2023-02-02T07:56:16;100403.38;;;6.42;89.65
47883;BME280;37739;50.350;7.578;2023-02-02T07:58:42;100392.50;;;6.44;89.86
47883;BME280;37739;50.350;7.578;2023-02-02T08:01:09;100407.78;;;6.44;90.23
47883;BME280;37739;50.350;7.578;2023-02-02T08:03:38;100408.59;;;6.43;90.40
47883;BME280;37739;50.350;7.578;2023-02-02T08:06:16;100411.13;;;6.43;90.36
47883;BME280;37739;50.350;7.578;2023-02-02T08:08:42;100412.22;;;6.47;90.50
47883;BME280;37739;50.350;7.578;2023-02-02T08:11:09;100422.31;;;6.45;90.52
47883;BME280;37739;50.350;7.578;2023-02-02T08:13:38;100413.28;;;6.51;90.62
47883;BME280;37739;50.350;7.578;2023-02-02T08:16:04;100418.38;;;6.51;90.73
47883;BME280;37739;50.350;7.578;2023-02-02T08:18:34;100416.88;;;6.54;90.13
47883;BME280;37739;50.350;7.578;2023-02-02T08:21:01;100415.41;;;6.58;90.08
47883;BME280;37739;50.350;7.578;2023-02-02T08:23:29;100425.00;;;6.62;90.15
47883;BME280;37739;50.350;7.578;2023-02-02T08:26:10;100419.91;;;6.62;89.82
47883;BME280;37739;50.350;7.578;2023-02-02T08:28:37;100420.81;;;6.62;90.27
47883;BME280;37739;50.350;7.578;2023-02-02T08:31:24;100417.47;;;6.63;89.83
47883;BME280;37739;50.350;7.578;2023-02-02T08:33:52;100421.97;;;6.67;89.47
47883;BME280;37739;50.350;7.578;2023-02-02T08:36:26;100416.97;;;6.69;89.22
47883;BME280;37739;50.350;7.578;2023-02-02T08:38:54;100425.50;;;6.69;89.16
47883;BME280;37739;50.350;7.578;2023-02-02T08:41:21;100433.25;;;6.71;89.35
47883;BME280;37739;50.350;7.578;2023-02-02T08:43:47;100427.47;;;6.74;89.49
47883;BME280;37739;50.350;7.578;2023-02-02T08:46:16;100431.97;;;6.78;89.33
47883;BME280;37739;50.350;7.578;2023-02-02T08:48:42;100433.06;;;6.81;88.96
47883;BME280;37739;50.350;7.578;2023-02-02T08:51:11;100435.69;;;6.83;89.01
47883;BME280;37739;50.350;7.578;2023-02-02T08:53:38;100438.31;;;6.84;89.04
47883;BME280;37739;50.350;7.578;2023-02-02T08:56:10;100440.88;;;6.84;89.24
47883;BME280;37739;50.350;7.578;2023-02-02T08:58:36;100436.84;;;6.88;89.42
47883;BME280;37739;50.350;7.578;2023-02-02T09:01:12;100441.19;;;6.89;89.39
47883;BME280;37739;50.350;7.578;2023-02-02T09:03:40;100447.25;;;6.91;89.64
47883;BME280;37739;50.350;7.578;2023-02-02T09:06:13;100446.44;;;6.92;89.20
47883;BME280;37739;50.350;7.578;2023-02-02T09:08:44;100446.56;;;6.94;88.99
47883;BME280;37739;50.350;7.578;2023-02-02T09:11:21;100444.78;;;6.93;88.96
47883;BME280;37739;50.350;7.578;2023-02-02T09:13:48;100440.75;;;6.96;88.70
47883;BME280;37739;50.350;7.578;2023-02-02T09:16:15;100457.03;;;6.98;88.93
47883;BME280;37739;50.350;7.578;2023-02-02T09:18:44;100453.81;;;7.01;88.87
47883;BME280;37739;50.350;7.578;2023-02-02T09:21:14;100452.13;;;7.01;88.33
47883;BME280;37739;50.350;7.578;2023-02-02T09:23:41;100452.84;;;6.99;87.91
47883;BME280;37739;50.350;7.578;2023-02-02T09:26:20;100452.03;;;7.00;88.15
47883;BME280;37739;50.350;7.578;2023-02-02T09:28:54;100452.22;;;7.03;87.91
47883;BME280;37739;50.350;7.578;2023-02-02T09:31:20;100457.34;;;7.03;87.68
47883;BME280;37739;50.350;7.578;2023-02-02T09:33:46;100458.19;;;7.03;87.60
47883;BME280;37739;50.350;7.578;2023-02-02T09:36:15;100463.50;;;7.06;87.78
47883;BME280;37739;50.350;7.578;2023-02-02T09:38:44;100473.00;;;7.09;87.73
47883;BME280;37739;50.350;7.578;2023-02-02T09:52:42;100482.72;;;7.15;89.50
47883;BME280;37739;50.350;7.578;2023-02-02T10:00:43;100482.38;;;7.23;89.04
47883;BME280;37739;50.350;7.578;2023-02-02T10:03:20;100481.88;;;7.29;88.76
47883;BME280;37739;50.350;7.578;2023-02-02T10:08:25;100493.72;;;7.42;88.68
47883;BME280;37739;50.350;7.578;2023-02-02T10:10:53;100501.38;;;7.42;88.75
47883;BME280;37739;50.350;7.578;2023-02-02T10:13:29;100504.81;;;7.42;88.26
47883;BME280;37739;50.350;7.578;2023-02-02T10:16:09;100506.03;;;7.34;88.05
47883;BME280;37739;50.350;7.578;2023-02-02T10:18:53;100515.16;;;7.31;88.07
47883;BME280;37739;50.350;7.578;2023-02-02T10:23:48;100509.19;;;7.30;88.65
47883;BME280;37739;50.350;7.578;2023-02-02T10:34:17;100525.19;;;7.27;88.72
47883;BME280;37739;50.350;7.578;2023-02-02T10:45:50;100527.91;;;7.31;87.78
47883;BME280;37739;50.350;7.578;2023-02-02T10:48:21;100535.88;;;7.35;87.28
47883;BME280;37739;50.350;7.578;2023-02-02T10:50:50;100524.09;;;7.37;87.09
47883;BME280;37739;50.350;7.578;2023-02-02T10:53:25;100514.75;;;7.38;86.67
47883;BME280;37739;50.350;7.578;2023-02-02T10:55:55;100521.59;;;7.39;86.81
47883;BME280;37739;50.350;7.578;2023-02-02T10:58:28;100515.00;;;7.42;86.91
47883;BME280;37739;50.350;7.578;2023-02-02T11:00:57;100527.69;;;7.41;85.84
47883;BME280;37739;50.350;7.578;2023-02-02T11:03:30;100525.13;;;7.41;86.00
47883;BME280;37739;50.350;7.578;2023-02-02T11:06:01;100524.56;;;7.45;86.16
47883;BME280;37739;50.350;7.578;2023-02-02T11:08:48;100515.84;;;7.56;85.81
47883;BME280;37739;50.350;7.578;2023-02-02T11:11:28;100509.97;;;7.57;85.54
47883;BME280;37739;50.350;7.578;2023-02-02T11:14:01;100520.44;;;7.62;85.31
47883;BME280;37739;50.350;7.578;2023-02-02T11:16:29;100523.38;;;7.68;85.06
47883;BME280;37739;50.350;7.578;2023-02-02T11:18:58;100524.53;;;7.73;85.02
47883;BME280;37739;50.350;7.578;2023-02-02T11:21:33;100519.50;;;7.75;84.87
47883;BME280;37739;50.350;7.578;2023-02-02T11:29:23;100520.91;;;7.70;85.02
47883;BME280;37739;50.350;7.578;2023-02-02T11:31:55;100525.25;;;7.71;84.83
47883;BME280;37739;50.350;7.578;2023-02-02T11:34:24;100504.91;;;7.72;85.02
47883;BME280;37739;50.350;7.578;2023-02-02T11:37:10;100514.31;;;7.73;84.89
47883;BME280;37739;50.350;7.578;2023-02-02T11:39:37;100512.72;;;7.75;84.78
47883;BME280;37739;50.350;7.578;2023-02-02T11:42:05;100517.06;;;7.76;84.91
47883;BME280;37739;50.350;7.578;2023-02-02T11:44:36;100521.09;;;7.73;84.18
47883;BME280;37739;50.350;7.578;2023-02-02T11:47:05;100528.56;;;7.70;84.51
47883;BME280;37739;50.350;7.578;2023-02-02T11:49:37;100519.50;;;7.75;84.39
47883;BME280;37739;50.350;7.578;2023-02-02T11:52:16;100537.13;;;7.70;84.28
47883;BME280;37739;50.350;7.578;2023-02-02T11:54:46;100533.16;;;7.75;84.87
47883;BME280;37739;50.350;7.578;2023-02-02T11:57:17;100519.63;;;7.76;85.40
47883;BME280;37739;50.350;7.578;2023-02-02T11:59:44;100520.31;;;7.74;83.50
47883;BME280;37739;50.350;7.578;2023-02-02T12:04:47;100525.69;;;7.78;83.49
47883;BME280;37739;50.350;7.578;2023-02-02T12:07:34;100527.44;;;7.79;83.76
47883;BME280;37739;50.350;7.578;2023-02-02T12:10:13;100533.72;;;7.84;84.53
47883;BME280;37739;50.350;7.578;2023-02-02T12:17:43;100540.88;;;7.90;83.56
47883;BME280;37739;50.350;7.578;2023-02-02T12:22:57;100520.25;;;8.02;83.76
47883;BME280;37739;50.350;7.578;2023-02-02T12:33:40;100517.47;;;8.12;82.92
47883;BME280;37739;50.350;7.578;2023-02-02T12:39:09;100514.00;;;8.12;82.94
47883;BME280;37739;50.350;7.578;2023-02-02T12:50:07;100519.84;;;8.09;82.32
47883;BME280;37739;50.350;7.578;2023-02-02T13:06:09;100513.25;;;8.28;82.38
47883;BME280;37739;50.350;7.578;2023-02-02T13:08:50;100514.13;;;8.28;82.42
47883;BME280;37739;50.350;7.578;2023-02-02T13:11:41;100515.72;;;8.26;82.29
47883;BME280;37739;50.350;7.578;2023-02-02T13:14:33;100517.34;;;8.25;82.01
47883;BME280;37739;50.350;7.578;2023-02-02T13:17:14;100516.69;;;8.28;82.39
47883;BME280;37739;50.350;7.578;2023-02-02T13:19:44;100529.56;;;8.30;82.98
47883;BME280;37739;50.350;7.578;2023-02-02T13:22:39;100544.78;;;8.28;83.01
47883;BME280;37739;50.350;7.578;2023-02-02T13:25:15;100537.56;;;8.21;83.39
47883;BME280;37739;50.350;7.578;2023-02-02T13:27:44;100538.19;;;8.17;83.85
47883;BME280;37739;50.350;7.578;2023-02-02T13:30:24;100548.03;;;8.11;84.18
47883;BME280;37739;50.350;7.578;2023-02-02T13:32:52;100558.44;;;8.14;85.22
47883;BME280;37739;50.350;7.578;2023-02-02T13:35:21;100554.28;;;8.16;84.87
47883;BME280;37739;50.350;7.578;2023-02-02T13:40:34;100558.88;;;8.06;84.51
47883;BME280;37739;50.350;7.578;2023-02-02T13:46:09;100551.38;;;8.10;83.33
47883;BME280;37739;50.350;7.578;2023-02-02T13:56:40;100559.59;;;8.19;82.45
47883;BME280;37739;50.350;7.578;2023-02-02T13:59:28;100561.19;;;8.17;81.92
47883;BME280;37739;50.350;7.578;2023-02-02T14:02:02;100566.47;;;8.20;82.36
47883;BME280;37739;50.350;7.578;2023-02-02T14:04:31;100563.47;;;8.12;81.54
47883;BME280;37739;50.350;7.578;2023-02-02T14:06:59;100578.00;;;8.13;81.47
47883;BME280;37739;50.350;7.578;2023-02-02T14:09:32;100571.41;;;8.17;82.12
47883;BME280;37739;50.350;7.578;2023-02-02T14:12:04;100573.00;;;8.15;81.43
47883;BME280;37739;50.350;7.578;2023-02-02T14:14:34;100577.81;;;8.10;80.73
47883;BME280;37739;50.350;7.578;2023-02-02T14:19:50;100574.75;;;8.16;80.38
47883;BME280;37739;50.350;7.578;2023-02-02T14:22:48;100569.28;;;8.10;80.14
47883;BME280;37739;50.350;7.578;2023-02-02T14:30:26;100577.22;;;8.14;80.38
47883;BME280;37739;50.350;7.578;2023-02-02T14:32:52;100577.22;;;8.14;79.95
47883;BME280;37739;50.350;7.578;2023-02-02T14:37:55;100587.16;;;8.10;78.57
47883;BME280;37739;50.350;7.578;2023-02-02T14:40:32;100582.41;;;8.16;78.94
47883;BME280;37739;50.350;7.578;2023-02-02T14:43:34;100585.94;;;8.18;79.12
47883;BME280;37739;50.350;7.578;2023-02-02T14:48:42;100591.50;;;8.25;78.81
47883;BME280;37739;50.350;7.578;2023-02-02T14:51:15;100582.34;;;8.29;78.55
47883;BME280;37739;50.350;7.578;2023-02-02T14:53:50;100579.78;;;8.29;78.48
47883;BME280;37739;50.350;7.578;2023-02-02T14:56:21;100574.84;;;8.32;78.33
47883;BME280;37739;50.350;7.578;2023-02-02T14:59:03;100576.44;;;8.30;78.22
47883;BME280;37739;50.350;7.578;2023-02-02T15:01:34;100575.06;;;8.35;78.34
47883;BME280;37739;50.350;7.578;2023-02-02T15:04:25;100585.81;;;8.30;77.27
47883;BME280;37739;50.350;7.578;2023-02-02T15:06:51;100586.66;;;8.30;76.85
47883;BME280;37739;50.350;7.578;2023-02-02T15:14:27;100598.84;;;8.34;77.72
47883;BME280;37739;50.350;7.578;2023-02-02T15:16:59;100603.16;;;8.35;77.79
47883;BME280;37739;50.350;7.578;2023-02-02T15:19:46;100604.13;;;8.37;77.54
47883;BME280;37739;50.350;7.578;2023-02-02T15:25:02;100615.34;;;8.39;77.80
47883;BME280;37739;50.350;7.578;2023-02-02T15:27:30;100625.38;;;8.36;77.34
47883;BME280;37739;50.350;7.578;2023-02-02T15:30:03;100624.66;;;8.39;77.24
47883;BME280;37739;50.350;7.578;2023-02-02T15:32:29;100630.22;;;8.32;76.10
47883;BME280;37739;50.350;7.578;2023-02-02T15:35:04;100635.50;;;8.35;77.21
47883;BME280;37739;50.350;7.578;2023-02-02T15:37:35;100633.84;;;8.35;77.64
47883;BME280;37739;50.350;7.578;2023-02-02T15:40:14;100637.38;;;8.37;78.09
47883;BME280;37739;50.350;7.578;2023-02-02T15:42:42;100647.50;;;8.36;77.67
47883;BME280;37739;50.350;7.578;2023-02-02T15:45:37;100650.94;;;8.36;77.96
47883;BME280;37739;50.350;7.578;2023-02-02T15:48:25;100653.50;;;8.36;77.91
47883;BME280;37739;50.350;7.578;2023-02-02T15:50:55;100651.03;;;8.38;78.80
47883;BME280;37739;50.350;7.578;2023-02-02T15:55:56;100656.06;;;8.36;78.71
47883;BME280;37739;50.350;7.578;2023-02-02T16:01:03;100662.13;;;8.38;78.72